Time;durP1;ratioP1;P1;durP2;ratioP2;P2;SDS_P1;SDS_P2;PMS_P1;PMS_P2;Temp;Humidity;BMP_temperature;BMP_pressure;BME280_temperature;BME280_humidity;BME280_pressure;Samples;Min_cycle;Max_cycle;Signal;HPM_P1;HPM_P2
2021/12/25 00:00:28;;;;;;;51.22;28.55;;;;;;;6.27;75.96;100856.31;5071444;28;20048;-62
2021/12/25 00:02:55;;;;;;;50.30;29.58;;;;;;;6.26;76.10;100855.50;5071372;28;20622;-62
2021/12/25 00:05:22;;;;;;;50.67;28.33;;;;;;;6.26;76.10;100867.66;5071479;28;20072;-62
2021/12/25 00:07:49;;;;;;;55.92;31.55;;;;;;;6.25;75.94;100868.53;5071177;28;20490;-62
2021/12/25 00:10:15;;;;;;;47.97;29.20;;;;;;;6.25;75.99;100866.81;5071230;28;20048;-62
2021/12/25 00:12:42;;;;;;;47.92;28.63;;;;;;;6.26;75.73;100854.63;5069917;28;20428;-62
2021/12/25 00:15:09;;;;;;;49.47;28.58;;;;;;;6.25;75.75;100848.56;5071237;28;20857;-62
2021/12/25 00:17:35;;;;;;;56.72;30.50;;;;;;;6.23;75.80;100866.00;5071040;28;20110;-62
2021/12/25 00:20:03;;;;;;;46.22;28.40;;;;;;;6.24;75.90;100870.31;5071138;28;20048;-62
2021/12/25 00:22:30;;;;;;;52.20;28.70;;;;;;;6.24;75.92;100867.72;5071324;28;20094;-63
2021/12/25 00:24:56;;;;;;;48.65;27.90;;;;;;;6.24;75.77;100861.66;5070950;28;20098;-62
2021/12/25 00:29:57;;;;;;;49.33;27.52;;;;;;;6.24;75.81;100846.88;5069763;28;20045;-62
2021/12/25 00:34:50;;;;;;;45.88;26.80;;;;;;;6.23;75.84;100850.38;5074149;28;20049;-62
2021/12/25 00:37:17;;;;;;;47.88;28.77;;;;;;;6.23;75.76;100841.72;5074002;28;20044;-62
2021/12/25 00:39:43;;;;;;;48.15;27.80;;;;;;;6.22;75.77;100840.84;5073878;28;20545;-62
2021/12/25 00:42:11;;;;;;;47.28;27.88;;;;;;;6.23;75.81;100852.97;5073942;28;20044;-62
2021/12/25 00:44:38;;;;;;;44.10;28.02;;;;;;;6.24;75.84;100840.81;5074101;28;20109;-62
2021/12/25 00:47:05;;;;;;;45.47;26.75;;;;;;;6.22;76.02;100838.25;5071443;28;20067;-62
2021/12/25 00:49:32;;;;;;;45.58;27.27;;;;;;;6.25;75.98;100834.66;5073952;28;20044;-62
2021/12/25 00:51:59;;;;;;;47.10;27.20;;;;;;;6.25;75.83;100839.88;5073901;28;20049;-63
2021/12/25 00:54:26;;;;;;;48.72;29.92;;;;;;;6.23;75.82;100837.34;5073760;28;20578;-62
2021/12/25 00:56:52;;;;;;;49.60;29.63;;;;;;;6.21;75.96;100834.78;5073563;28;20598;-62
2021/12/25 00:59:19;;;;;;;47.40;27.40;;;;;;;6.22;75.84;100840.84;5073694;28;20044;-62
2021/12/25 01:01:46;;;;;;;50.65;28.65;;;;;;;6.23;75.79;100844.31;5073594;28;20540;-62
2021/12/25 01:04:13;;;;;;;48.38;27.48;;;;;;;6.24;75.85;100833.00;5072681;28;20050;-62
2021/12/25 01:06:40;;;;;;;48.83;29.42;;;;;;;6.23;76.09;100833.91;5073529;28;20137;-62
2021/12/25 01:09:07;;;;;;;46.22;27.25;;;;;;;6.24;75.84;100839.03;5073459;28;20098;-62
2021/12/25 01:11:36;;;;;;;44.08;26.60;;;;;;;6.25;75.98;100848.56;5073566;28;20109;-62
2021/12/25 01:14:18;;;;;;;45.80;28.08;;;;;;;6.26;75.86;100841.59;5073368;28;20090;-62
2021/12/25 01:22:24;;;;;;;48.70;28.20;;;;;;;6.28;75.82;100838.00;5073238;28;20121;-62
2021/12/25 01:30:33;;;;;;;48.53;28.65;;;;;;;6.27;76.01;100843.28;5073081;28;20053;-62
2021/12/25 01:38:47;;;;;;;46.75;28.23;;;;;;;6.28;76.10;100842.41;5072367;28;20535;-62
2021/12/25 01:49:26;;;;;;;46.40;28.30;;;;;;;6.29;75.98;100831.91;5072781;28;20052;-62
2021/12/25 01:51:52;;;;;;;49.35;28.30;;;;;;;6.30;75.76;100844.03;5071578;28;20101;-62
2021/12/25 01:54:19;;;;;;;49.90;28.88;;;;;;;6.31;75.80;100842.25;5072604;28;20045;-62
2021/12/25 01:56:47;;;;;;;44.40;27.30;;;;;;;6.30;76.02;100830.16;5072532;28;20049;-63
2021/12/25 01:59:14;;;;;;;47.83;28.30;;;;;;;6.30;75.81;100843.19;5072561;28;20113;-62
2021/12/25 02:01:41;;;;;;;48.22;28.45;;;;;;;6.28;76.01;100838.00;5072729;28;20402;-62
2021/12/25 02:04:08;;;;;;;46.47;27.85;;;;;;;6.28;76.10;100834.56;5072561;28;20091;-62
2021/12/25 02:06:36;;;;;;;47.88;30.10;;;;;;;6.29;76.13;100836.28;5072458;28;20486;-62
2021/12/25 02:09:05;;;;;;;48.45;29.70;;;;;;;6.29;75.90;100833.66;5071411;28;20044;-62
2021/12/25 02:11:32;;;;;;;51.85;30.00;;;;;;;6.29;76.30;100836.28;5072397;28;20052;-62
2021/12/25 02:13:59;;;;;;;43.50;27.42;;;;;;;6.30;75.97;100835.38;5072373;28;20044;-62
2021/12/25 02:16:31;;;;;;;51.05;29.48;;;;;;;6.30;76.24;100822.34;5072332;28;20552;-62
2021/12/25 02:21:37;;;;;;;52.85;28.98;;;;;;;6.31;76.27;100817.06;5072418;28;20075;-62
2021/12/25 02:24:11;;;;;;;51.60;30.27;;;;;;;6.32;76.15;100804.88;5071108;28;20082;-63
2021/12/25 02:26:43;;;;;;;49.17;29.42;;;;;;;6.32;76.03;100815.31;5072357;28;20041;-62
2021/12/25 02:29:10;;;;;;;52.75;29.55;;;;;;;6.32;75.95;100803.13;5072147;28;20102;-62
2021/12/25 02:31:37;;;;;;;49.78;28.55;;;;;;;6.33;76.01;100803.97;5072285;28;20444;-62
2021/12/25 02:34:04;;;;;;;50.58;28.60;;;;;;;6.28;76.22;100793.72;5072141;28;20080;-62
2021/12/25 02:36:31;;;;;;;50.08;29.63;;;;;;;6.30;76.36;100807.56;5072221;28;20044;-62
2021/12/25 02:38:57;;;;;;;52.08;30.88;;;;;;;6.28;76.19;100803.31;5070739;28;20106;-62
2021/12/25 02:41:24;;;;;;;50.72;30.17;;;;;;;6.26;76.38;100803.38;5072378;28;20040;-62
2021/12/25 02:43:51;;;;;;;51.33;29.20;;;;;;;6.28;76.41;100791.09;5072085;28;20094;-62
2021/12/25 02:46:18;;;;;;;51.80;30.65;;;;;;;6.29;76.21;100785.00;5071971;28;20048;-62
2021/12/25 02:48:44;;;;;;;50.10;29.08;;;;;;;6.28;76.29;100774.63;5072110;28;20048;-62
2021/12/25 02:51:12;;;;;;;52.90;31.98;;;;;;;6.27;76.17;100762.50;5071971;28;20040;-62
2021/12/25 02:53:39;;;;;;;55.40;31.15;;;;;;;6.28;76.33;100775.47;5072088;28;20045;-62
2021/12/25 02:56:07;;;;;;;55.83;33.10;;;;;;;6.30;76.38;100773.66;5070834;28;20084;-62
2021/12/25 02:58:34;;;;;;;54.15;31.90;;;;;;;6.29;76.08;100777.19;5075171;28;20097;-62
2021/12/25 03:01:05;;;;;;;58.47;33.70;;;;;;;6.30;76.20;100770.22;5075950;28;20486;-62
2021/12/25 03:03:32;;;;;;;56.47;31.80;;;;;;;6.30;76.28;100768.47;5076072;28;20044;-62
2021/12/25 03:06:02;;;;;;;57.20;33.42;;;;;;;6.33;76.03;100765.72;5075742;28;20631;-62
2021/12/25 03:08:29;;;;;;;61.30;34.28;;;;;;;6.34;75.95;100779.63;5075863;28;20117;-62
2021/12/25 03:10:56;;;;;;;59.80;32.65;;;;;;;6.33;76.04;100790.94;5075690;28;20048;-62
2021/12/25 03:16:18;;;;;;;62.93;33.53;;;;;;;6.33;75.76;100789.19;5056033;28;20123;-62
2021/12/25 03:18:49;;;;;;;59.63;32.58;;;;;;;6.32;75.99;100797.94;5075553;28;20140;-62
2021/12/25 03:21:17;;;;;;;59.05;33.38;;;;;;;6.33;76.01;100796.16;5075528;28;20448;-62
2021/12/25 03:23:45;;;;;;;54.72;32.30;;;;;;;6.33;75.88;100801.38;5075728;28;20128;-62
2021/12/25 03:26:12;;;;;;;61.97;34.28;;;;;;;6.32;75.85;100797.94;5075462;28;20045;-62
2021/12/25 03:28:43;;;;;;;60.88;34.15;;;;;;;6.33;75.92;100799.59;5074252;28;20049;-62
2021/12/25 03:31:18;;;;;;;58.00;34.20;;;;;;;6.34;75.74;100790.03;5075336;28;20448;-62
2021/12/25 03:33:49;;;;;;;60.65;34.40;;;;;;;6.34;75.91;100793.50;5075491;28;20052;-62
2021/12/25 03:36:17;;;;;;;60.75;34.97;;;;;;;6.36;75.75;100777.78;5075318;28;20089;-62
2021/12/25 03:38:44;;;;;;;58.97;35.58;;;;;;;6.35;75.64;100761.31;5074936;28;20064;-62
2021/12/25 03:41:13;;;;;;;61.40;35.95;;;;;;;6.36;75.84;100769.97;5075109;28;20470;-62
2021/12/25 03:43:40;;;;;;;60.38;34.75;;;;;;;6.36;75.74;100780.38;5075213;28;20098;-62
2021/12/25 03:46:09;;;;;;;59.15;33.30;;;;;;;6.33;75.74;100773.53;5074004;28;20052;-62
2021/12/25 03:59:19;;;;;;;64.18;35.85;;;;;;;6.35;75.72;100779.56;5074803;28;20106;-62
2021/12/25 04:01:52;;;;;;;61.05;33.92;;;;;;;6.34;75.65;100777.84;5073509;28;20037;-62
2021/12/25 04:04:33;;;;;;;61.10;35.10;;;;;;;6.34;75.78;100777.84;5070064;28;20049;-62
2021/12/25 04:07:09;;;;;;;60.45;34.45;;;;;;;6.35;75.77;100776.13;5071344;28;20048;-62
2021/12/25 04:09:38;;;;;;;;;;;;;;;6.36;75.77;100772.56;5071234;28;20040;-63
2021/12/25 04:12:08;;;;;;;62.40;35.50;;;;;;;6.38;75.63;100774.22;5071354;28;19970;-62
2021/12/25 04:14:35;;;;;;;66.60;34.20;;;;;;;6.36;75.36;100778.66;5071675;28;20052;-62
2021/12/25 04:17:02;;;;;;;60.25;33.35;;;;;;;6.36;75.69;100778.66;5071163;28;20094;-63
2021/12/25 04:19:29;;;;;;;61.90;33.85;;;;;;;6.34;75.64;100769.19;5070291;28;20516;-62
2021/12/25 04:22:03;;;;;;;55.60;32.65;;;;;;;6.36;75.68;100757.81;5070001;28;20102;-62
2021/12/25 04:24:34;;;;;;;57.65;33.40;;;;;;;6.35;75.58;100763.06;5071258;28;20049;-63
2021/12/25 04:27:01;;;;;;;63.65;34.58;;;;;;;6.37;75.74;100767.31;5071221;28;20456;-62
2021/12/25 05:04:55;;;;;;;56.88;32.55;;;;;;;6.35;75.49;100750.88;5070109;28;20086;-63
2021/12/25 05:07:21;;;;;;;54.30;32.08;;;;;;;6.34;75.59;100749.19;5070082;28;20049;-62
2021/12/25 05:09:48;;;;;;;60.47;34.17;;;;;;;6.33;75.71;100757.06;5069290;28;20118;-62
2021/12/25 05:12:14;;;;;;;53.83;32.80;;;;;;;6.31;75.74;100749.31;5070382;28;20105;-63
2021/12/25 05:14:41;;;;;;;54.47;32.75;;;;;;;6.32;75.69;100748.41;5070095;28;20044;-62
2021/12/25 05:17:10;;;;;;;55.90;33.22;;;;;;;6.31;75.67;100753.66;5069846;28;20106;-63
2021/12/25 05:19:37;;;;;;;56.63;32.67;;;;;;;6.31;75.63;100746.72;5069336;28;20449;-62
2021/12/25 05:22:04;;;;;;;56.42;32.75;;;;;;;6.30;75.38;100737.19;5069813;28;20131;-63
2021/12/25 05:24:30;;;;;;;52.55;31.38;;;;;;;6.33;75.56;100739.66;5068715;28;20041;-62
2021/12/25 05:26:58;;;;;;;54.90;33.35;;;;;;;6.32;75.38;100739.72;5069968;28;20040;-63
2021/12/25 05:29:26;;;;;;;55.85;33.15;;;;;;;6.33;75.11;100738.81;5069777;28;20052;-63
2021/12/25 05:31:53;;;;;;;54.88;32.63;;;;;;;6.32;75.39;100737.13;5069596;28;20122;-62
2021/12/25 05:34:20;;;;;;;55.63;32.25;;;;;;;6.34;75.42;100735.31;5069818;28;20048;-62
2021/12/25 05:36:47;;;;;;;56.13;33.80;;;;;;;6.31;75.35;100735.41;5069618;28;20102;-63
2021/12/25 05:39:14;;;;;;;55.03;33.85;;;;;;;6.30;75.34;100733.75;5069627;28;20466;-62
2021/12/25 05:41:41;;;;;;;54.42;32.65;;;;;;;6.30;75.27;100738.97;5068358;28;20041;-63
2021/12/25 05:44:08;;;;;;;52.30;32.20;;;;;;;6.29;75.33;100742.47;5069314;28;20048;-63
2021/12/25 05:46:37;;;;;;;55.20;32.90;;;;;;;6.28;75.51;100740.75;5069644;28;20105;-63
2021/12/25 05:49:04;;;;;;;54.60;31.92;;;;;;;6.29;75.38;100743.28;5069385;28;20053;-62
2021/12/25 05:51:32;;;;;;;52.90;32.08;;;;;;;6.26;75.49;100745.16;5069376;28;20040;-62
2021/12/25 05:53:59;;;;;;;55.13;31.17;;;;;;;6.27;75.16;100755.56;5069437;28;20056;-61
2021/12/25 05:56:26;;;;;;;56.63;31.08;;;;;;;6.26;75.41;100753.00;5069196;28;20048;-62
2021/12/25 05:58:52;;;;;;;50.53;30.42;;;;;;;6.27;75.44;100759.91;5068333;28;20052;-62
2021/12/25 06:01:19;;;;;;;50.65;30.92;;;;;;;6.27;75.54;100770.31;5069172;28;20559;-64
2021/12/25 06:03:56;;;;;;;53.42;30.08;;;;;;;6.26;75.45;100766.00;5069213;28;20044;-63
2021/12/25 06:06:39;;;;;;;49.63;30.48;;;;;;;6.28;75.43;100770.25;5068881;28;20049;-64
2021/12/25 06:09:11;;;;;;;52.03;31.23;;;;;;;6.29;75.37;100774.56;5068619;28;20049;-64
2021/12/25 06:11:38;;;;;;;52.38;31.02;;;;;;;6.29;75.27;100779.78;5069362;28;20180;-64
2021/12/25 06:14:10;;;;;;;54.53;31.42;;;;;;;6.29;75.26;100787.59;5068169;28;20044;-64
2021/12/25 06:16:38;;;;;;;52.53;31.75;;;;;;;6.28;75.35;100779.84;5068991;28;20040;-64
2021/12/25 06:19:04;;;;;;;54.30;33.00;;;;;;;6.29;75.34;100776.34;5068849;28;20056;-64
2021/12/25 06:21:31;;;;;;;53.13;31.45;;;;;;;6.29;75.57;100779.78;5068861;28;20052;-64
2021/12/25 06:24:01;;;;;;;49.50;31.50;;;;;;;6.29;75.54;100779.78;5069076;28;20096;-63
2021/12/25 06:26:34;;;;;;;49.25;30.05;;;;;;;6.27;75.35;100768.59;5069099;28;20048;-64
2021/12/25 06:29:01;;;;;;;48.15;29.40;;;;;;;6.29;75.52;100779.78;5069047;28;20048;-64
2021/12/25 06:31:28;;;;;;;52.80;31.85;;;;;;;6.29;75.49;100786.75;5067999;28;20085;-62
2021/12/25 06:33:57;;;;;;;51.25;31.30;;;;;;;6.27;75.30;100778.16;5069116;28;20048;-61
2021/12/25 06:36:24;;;;;;;52.35;31.75;;;;;;;6.28;75.37;100778.06;5068778;28;20048;-61
2021/12/25 06:38:51;;;;;;;51.95;31.80;;;;;;;6.27;75.42;100791.16;5068666;28;20079;-61
2021/12/25 06:41:17;;;;;;;52.22;31.77;;;;;;;6.27;75.61;100802.47;5068652;28;20087;-64
2021/12/25 06:43:44;;;;;;;53.20;31.40;;;;;;;6.29;75.53;100812.81;5068850;28;20457;-62
2021/12/25 06:46:10;;;;;;;51.30;30.70;;;;;;;6.27;75.54;100812.88;5068698;28;20044;-62
2021/12/25 06:48:37;;;;;;;52.15;30.38;;;;;;;6.25;75.61;100812.09;5067721;28;20566;-62
2021/12/25 06:51:04;;;;;;;54.28;31.73;;;;;;;6.27;75.66;100809.41;5068708;28;20086;-62
2021/12/25 06:53:30;;;;;;;51.15;31.90;;;;;;;6.28;75.62;100804.13;5068716;28;20052;-62
2021/12/25 06:55:57;;;;;;;50.33;30.73;;;;;;;6.28;75.78;100793.72;5068348;28;20106;-61
2021/12/25 06:58:24;;;;;;;49.95;30.05;;;;;;;6.29;75.62;100782.38;5068751;28;20048;-62
2021/12/25 07:00:51;;;;;;;52.60;30.95;;;;;;;6.33;75.61;100775.31;5068460;28;20056;-62
2021/12/25 07:03:17;;;;;;;55.42;31.13;;;;;;;6.33;75.58;100773.53;5068458;28;20402;-64
2021/12/25 07:05:44;;;;;;;53.83;32.03;;;;;;;6.31;75.56;100771.91;5067536;28;20090;-62
2021/12/25 07:08:11;;;;;;;55.08;33.13;;;;;;;6.32;75.59;100776.22;5068407;28;20048;-62
2021/12/25 07:10:37;;;;;;;52.95;30.65;;;;;;;6.34;75.70;100782.22;5068629;28;20448;-62
2021/12/25 07:13:05;;;;;;;50.78;30.95;;;;;;;6.32;75.45;100779.69;5068639;28;20048;-62
2021/12/25 07:15:31;;;;;;;53.03;33.17;;;;;;;6.31;75.51;100772.78;5068564;28;20045;-61
2021/12/25 07:17:58;;;;;;;51.72;31.80;;;;;;;6.33;75.57;100780.53;5068503;28;20080;-62
2021/12/25 07:20:25;;;;;;;53.65;33.85;;;;;;;6.34;75.75;100775.25;5068549;28;20048;-62
2021/12/25 07:22:51;;;;;;;56.15;33.05;;;;;;;6.35;75.46;100773.50;5067110;28;20040;-62
2021/12/25 07:25:18;;;;;;;54.30;32.45;;;;;;;6.33;75.59;100776.16;5068545;28;20049;-62
2021/12/25 07:27:45;;;;;;;58.30;35.65;;;;;;;6.33;75.61;100783.97;5068386;28;20087;-62
2021/12/25 07:30:11;;;;;;;51.30;31.95;;;;;;;6.35;75.73;100770.91;5068177;28;20110;-62
2021/12/25 07:32:38;;;;;;;55.10;32.92;;;;;;;6.33;75.70;100768.31;5068388;28;20052;-62
2021/12/25 07:35:05;;;;;;;55.38;32.83;;;;;;;6.34;75.60;100783.06;5068235;28;20056;-62
2021/12/25 07:37:32;;;;;;;53.70;31.25;;;;;;;6.36;75.66;100781.25;5067251;28;20048;-61
2021/12/25 07:39:59;;;;;;;55.97;31.40;;;;;;;6.33;75.68;100777.91;5067621;28;20489;-62
2021/12/25 07:42:25;;;;;;;56.88;31.73;;;;;;;6.31;75.70;100767.56;5068347;28;20048;-62
2021/12/25 07:44:55;;;;;;;58.80;35.00;;;;;;;6.34;75.68;100763.97;5071491;28;20482;-62
2021/12/25 07:47:23;;;;;;;57.05;34.08;;;;;;;6.37;75.67;100769.06;5071929;28;20040;-62
2021/12/25 07:49:50;;;;;;;56.42;32.95;;;;;;;6.35;75.67;100771.72;5071560;28;20052;-62
2021/12/25 07:52:16;;;;;;;58.88;35.47;;;;;;;6.37;75.65;100774.28;5070310;28;20121;-64
2021/12/25 07:54:43;;;;;;;59.38;34.25;;;;;;;6.36;75.60;100765.63;5071492;28;20094;-62
2021/12/25 07:57:10;;;;;;;55.88;34.80;;;;;;;6.35;75.94;100752.66;5071512;28;20052;-62
2021/12/25 07:59:37;;;;;;;56.80;34.33;;;;;;;6.40;75.79;100755.06;5071831;28;20044;-62
2021/12/25 08:02:03;;;;;;;55.85;34.33;;;;;;;6.39;75.64;100764.66;5071316;28;20041;-64
2021/12/25 08:04:30;;;;;;;62.67;34.70;;;;;;;6.40;75.84;100768.09;5071480;28;20117;-63
2021/12/25 08:06:57;;;;;;;56.13;35.70;;;;;;;6.39;75.70;100762.03;5070154;28;20502;-64
2021/12/25 08:09:29;;;;;;;58.50;34.88;;;;;;;6.42;75.59;100753.25;5071440;28;20114;-62
2021/12/25 08:11:57;;;;;;;59.63;35.40;;;;;;;6.45;75.64;100761.81;5071077;28;20406;-62
2021/12/25 08:14:25;;;;;;;60.92;36.08;;;;;;;6.43;75.63;100762.78;5071418;28;20658;-62
2021/12/25 08:17:03;;;;;;;61.20;35.47;;;;;;;6.45;75.69;100771.38;5071281;28;20052;-62
2021/12/25 08:19:30;;;;;;;58.97;35.95;;;;;;;6.43;75.58;100779.25;5071205;28;20117;-62
2021/12/25 08:21:56;;;;;;;62.80;38.40;;;;;;;6.45;75.66;100777.44;5071199;28;20106;-62
2021/12/25 08:24:24;;;;;;;65.70;38.88;;;;;;;6.47;75.54;100787.81;5071355;28;20059;-62
2021/12/25 08:26:50;;;;;;;61.33;37.72;;;;;;;6.51;75.62;100778.94;5069761;28;20823;-62
2021/12/25 08:29:17;;;;;;;61.45;36.72;;;;;;;6.51;75.58;100774.59;5070890;28;20079;-65
2021/12/25 08:31:44;;;;;;;54.92;33.78;;;;;;;6.53;75.61;100771.94;5070968;28;20049;-61
2021/12/25 08:34:11;;;;;;;58.75;35.47;;;;;;;6.52;75.40;100780.66;5070885;28;20045;-60
2021/12/25 08:36:38;;;;;;;54.70;33.03;;;;;;;6.50;75.71;100779.84;5071140;28;20452;-60
2021/12/25 08:39:06;;;;;;;57.65;35.13;;;;;;;6.51;75.77;100781.56;5070798;28;20518;-61
2021/12/25 08:41:33;;;;;;;53.05;33.42;;;;;;;6.52;75.50;100783.25;5069673;28;20486;-60
2021/12/25 08:44:07;;;;;;;55.17;34.33;;;;;;;6.49;75.66;100784.22;5070763;28;20049;-61
2021/12/25 08:46:54;;;;;;;54.20;33.90;;;;;;;6.52;75.71;100785.88;5070989;28;20478;-61
2021/12/25 08:49:25;;;;;;;61.28;36.50;;;;;;;6.53;75.72;100793.63;5070812;28;20079;-61
2021/12/25 08:51:52;;;;;;;56.72;34.85;;;;;;;6.51;75.54;100795.47;5070573;28;20479;-60
2021/12/25 08:54:19;;;;;;;61.53;35.78;;;;;;;6.51;75.65;100792.00;5073071;28;20630;-60
2021/12/25 08:56:46;;;;;;;58.75;35.90;;;;;;;6.52;75.46;100786.72;5077926;28;20060;-60
2021/12/25 08:59:12;;;;;;;59.50;35.80;;;;;;;6.55;75.62;100788.34;5090423;28;20044;-60
2021/12/25 09:01:39;;;;;;;63.22;38.13;;;;;;;6.56;75.50;100787.44;5090780;28;20486;-61
2021/12/25 09:04:06;;;;;;;59.03;35.20;;;;;;;6.56;75.58;100769.19;5078328;28;20082;-61
2021/12/25 09:06:33;;;;;;;64.47;37.22;;;;;;;6.58;75.45;100767.38;5070576;28;20094;-60
2021/12/25 09:09:07;;;;;;;65.53;38.15;;;;;;;6.57;75.46;100776.09;5079195;28;20052;-61
2021/12/25 09:11:37;;;;;;;61.47;36.42;;;;;;;6.56;75.46;100771.78;5078421;28;20044;-60
2021/12/25 09:14:05;;;;;;;62.30;35.83;;;;;;;6.58;75.44;100775.19;5074783;28;20089;-60
2021/12/25 09:16:32;;;;;;;62.33;37.30;;;;;;;6.61;75.20;100775.06;5079933;28;20044;-60
2021/12/25 09:18:59;;;;;;;67.22;38.42;;;;;;;6.59;75.14;100769.09;5079944;28;20088;-60
2021/12/25 09:21:26;;;;;;;118.28;59.70;;;;;;;6.60;75.06;100762.97;5078741;28;20053;-60
2021/12/25 09:23:52;;;;;;;116.63;59.25;;;;;;;6.60;75.07;100770.78;5083978;28;20044;-61
2021/12/25 09:26:19;;;;;;;101.10;51.75;;;;;;;6.60;75.28;100768.19;5090042;28;20474;-60
2021/12/25 09:28:46;;;;;;;78.05;41.75;;;;;;;6.61;75.06;100767.25;5089651;28;20044;-60
2021/12/25 09:31:14;;;;;;;67.85;40.20;;;;;;;6.63;74.96;100768.03;5071474;28;20078;-60
2021/12/25 09:33:41;;;;;;;58.88;36.75;;;;;;;6.65;75.21;100775.81;5069323;28;20045;-60
2021/12/25 09:36:14;;;;;;;60.67;36.22;;;;;;;6.64;75.02;100767.16;5069387;28;20059;-59
2021/12/25 09:38:40;;;;;;;60.83;37.33;;;;;;;6.66;75.17;100764.47;5068998;28;20109;-60
2021/12/25 09:41:07;;;;;;;62.92;36.13;;;;;;;6.68;75.00;100768.72;5069780;28;20097;-60
2021/12/25 09:43:34;;;;;;;64.25;38.20;;;;;;;6.67;74.94;100763.56;5069706;28;20060;-60
2021/12/25 09:46:00;;;;;;;60.28;37.20;;;;;;;6.68;75.12;100744.41;5069532;28;20118;-61
2021/12/25 09:48:27;;;;;;;64.00;37.03;;;;;;;6.68;74.90;100744.41;5068438;28;20045;-60
2021/12/25 09:50:54;;;;;;;60.63;35.83;;;;;;;6.63;75.02;100741.97;5069303;28;20087;-60
2021/12/25 09:53:21;;;;;;;61.28;37.50;;;;;;;6.70;74.79;100740.81;5069463;28;20114;-60
2021/12/25 09:55:49;;;;;;;62.42;38.30;;;;;;;6.68;74.94;100729.59;5069439;28;20040;-62
2021/12/25 09:58:15;;;;;;;63.10;37.83;;;;;;;6.67;75.09;100725.28;5069041;28;20045;-60
2021/12/25 10:00:45;;;;;;;60.78;37.50;;;;;;;6.66;75.11;100714.94;5069060;28;20052;-60
2021/12/25 10:03:21;;;;;;;62.38;37.50;;;;;;;6.66;75.29;100714.94;5068160;28;20076;-60
2021/12/25 10:05:50;;;;;;;60.60;37.42;;;;;;;6.67;75.21;100722.69;5064267;28;20057;-60
2021/12/25 10:08:18;;;;;;;63.85;37.95;;;;;;;6.68;75.18;100721.78;5057800;28;20052;-60
2021/12/25 10:10:54;;;;;;;61.97;38.40;;;;;;;6.70;74.94;100712.13;5049089;28;20094;-60
2021/12/25 10:13:30;;;;;;;63.22;38.22;;;;;;;6.70;75.10;100711.28;5048916;28;20041;-60
2021/12/25 10:16:03;;;;;;;64.00;38.25;;;;;;;6.70;75.02;100719.97;5050160;28;20123;-60
2021/12/25 10:18:32;;;;;;;65.20;38.10;;;;;;;6.67;75.03;100717.47;5055191;28;20041;-61
2021/12/25 10:21:23;;;;;;;65.18;38.60;;;;;;;6.68;75.37;100718.34;5048111;28;20175;-61
2021/12/25 10:24:10;;;;;;;59.00;35.97;;;;;;;6.67;75.20;100712.25;5048059;28;20534;-60
2021/12/25 10:26:40;;;;;;;63.95;37.17;;;;;;;6.68;75.20;100708.75;5059188;28;20040;-61
2021/12/25 10:29:25;;;;;;;63.17;37.42;;;;;;;6.68;75.27;100713.94;5068410;28;20138;-61
2021/12/25 10:31:55;;;;;;;65.80;38.20;;;;;;;6.68;75.30;100715.72;5068364;28;20067;-60
2021/12/25 10:34:26;;;;;;;65.65;39.20;;;;;;;6.66;75.36;100717.53;5068187;28;20040;-61
2021/12/25 10:36:52;;;;;;;63.80;37.83;;;;;;;6.62;75.51;100711.59;5067196;28;20063;-60
2021/12/25 10:39:27;;;;;;;66.43;40.08;;;;;;;6.63;75.46;100712.47;5067635;28;20044;-61
2021/12/25 10:42:20;;;;;;;62.85;38.42;;;;;;;6.64;75.29;100709.78;5068546;28;20052;-60
2021/12/25 10:44:48;;;;;;;61.90;37.95;;;;;;;6.66;75.37;100707.09;5086033;28;20044;-60
2021/12/25 10:47:20;;;;;;;61.47;38.22;;;;;;;6.69;75.33;100702.63;5088889;28;20482;-59
2021/12/25 10:49:51;;;;;;;63.63;37.88;;;;;;;6.69;75.42;100700.00;5088969;28;20063;-60
2021/12/25 10:52:27;;;;;;;61.03;37.88;;;;;;;6.77;75.31;100691.88;5085895;28;20639;-60
2021/12/25 10:54:58;;;;;;;62.45;38.42;;;;;;;6.79;75.32;100690.06;5068593;28;20457;-60
2021/12/25 10:57:31;;;;;;;64.70;40.38;;;;;;;6.83;75.19;100683.78;5068909;28;20090;-59
2021/12/25 10:59:58;;;;;;;62.90;37.30;;;;;;;6.84;75.42;100682.00;5068440;28;20110;-61
2021/12/25 11:02:35;;;;;;;56.25;32.30;;;;;;;7.06;75.36;100675.88;5068851;28;20121;-60
2021/12/25 11:05:39;;;;;;;60.63;37.28;;;;;;;7.00;75.19;100674.41;5068478;28;20173;-61
2021/12/25 11:08:15;;;;;;;58.72;33.72;;;;;;;6.96;74.94;100673.69;5026171;28;20046;-59
2021/12/25 11:10:45;;;;;;;59.85;35.65;;;;;;;6.95;75.09;100673.75;5043529;28;20479;-59
2021/12/25 11:13:21;;;;;;;59.25;36.58;;;;;;;6.94;75.36;100665.06;5048833;28;20106;-59
2021/12/25 11:15:49;;;;;;;56.00;35.65;;;;;;;6.88;75.42;100659.25;5048501;28;20457;-60
2021/12/25 11:18:17;;;;;;;58.42;35.78;;;;;;;6.85;75.60;100660.25;5049446;28;20102;-62
2021/12/25 11:20:45;;;;;;;53.50;34.75;;;;;;;6.83;75.57;100655.09;5052192;28;20620;-61
2021/12/25 11:23:14;;;;;;;57.30;35.42;;;;;;;6.78;75.65;100656.19;5052079;28;20053;-59
2021/12/25 11:25:44;;;;;;;56.30;36.60;;;;;;;6.80;75.80;100647.38;5054148;28;20053;-61
2021/12/25 11:28:14;;;;;;;55.60;35.63;;;;;;;6.78;75.64;100643.16;5071876;28;20048;-60
2021/12/25 11:30:45;;;;;;;58.85;35.90;;;;;;;6.82;75.79;100634.31;5071958;28;20088;-61
2021/12/25 11:33:12;;;;;;;59.13;37.13;;;;;;;6.83;75.81;100629.00;5071826;28;20132;-60
2021/12/25 11:35:40;;;;;;;57.60;36.17;;;;;;;6.90;75.65;100636.59;5072148;28;20044;-59
2021/12/25 11:38:08;;;;;;;60.58;37.28;;;;;;;6.90;75.73;100629.59;5071934;28;20049;-60
2021/12/25 11:40:40;;;;;;;62.03;37.08;;;;;;;6.92;75.39;100627.78;5072264;28;20056;-61
2021/12/25 11:43:07;;;;;;;61.97;38.35;;;;;;;6.93;75.45;100618.16;5070938;28;20102;-59
2021/12/25 11:45:58;;;;;;;63.70;38.00;;;;;;;6.92;75.87;100611.25;5072317;28;20048;-60
2021/12/25 11:48:26;;;;;;;61.35;37.67;;;;;;;6.95;75.69;100605.94;5071903;28;20865;-59
2021/12/25 11:50:53;;;;;;;59.15;36.95;;;;;;;6.91;75.89;100605.19;5071961;28;20090;-60
2021/12/25 11:53:42;;;;;;;62.85;38.88;;;;;;;6.89;75.89;100599.19;5071616;28;20048;-60
2021/12/25 11:58:50;;;;;;;62.20;38.58;;;;;;;6.95;75.73;100591.09;5070494;28;20048;-60
2021/12/25 12:01:33;;;;;;;64.32;40.28;;;;;;;6.97;75.78;100589.28;5071464;28;20048;-60
2021/12/25 12:04:10;;;;;;;64.85;38.35;;;;;;;6.98;75.70;100587.50;5071570;28;20504;-60
2021/12/25 12:06:46;;;;;;;59.50;37.28;;;;;;;6.99;75.72;100576.16;5071550;28;20053;-60
2021/12/25 12:09:21;;;;;;;66.88;40.58;;;;;;;7.01;75.46;100582.19;5071431;28;20517;-60
2021/12/25 12:12:09;;;;;;;68.93;41.05;;;;;;;7.04;75.68;100574.19;5071504;28;20045;-60
2021/12/25 12:14:36;;;;;;;66.18;40.30;;;;;;;7.04;75.70;100582.03;5071513;28;20059;-60
2021/12/25 12:17:08;;;;;;;71.90;41.55;;;;;;;7.00;75.61;100576.09;5070304;28;20049;-60
2021/12/25 12:19:38;;;;;;;65.90;39.70;;;;;;;7.03;75.73;100577.72;5071373;28;20072;-60
2021/12/25 12:22:08;;;;;;;65.35;39.72;;;;;;;7.04;75.62;100576.81;5071260;28;20560;-60
2021/12/25 12:27:03;;;;;;;63.67;39.58;;;;;;;7.07;75.83;100571.44;5071426;28;20053;-60
2021/12/25 12:29:39;;;;;;;66.10;38.17;;;;;;;7.08;75.75;100580.97;5070798;28;20040;-60
2021/12/25 12:32:27;;;;;;;63.50;38.65;;;;;;;7.07;75.67;100570.59;5070967;28;20547;-60
2021/12/25 12:34:54;;;;;;;64.25;39.08;;;;;;;7.08;75.72;100567.91;5070958;28;20547;-60
2021/12/25 12:37:21;;;;;;;63.45;37.70;;;;;;;7.13;75.51;100567.72;5071023;28;20045;-60
2021/12/25 12:40:00;;;;;;;58.42;36.72;;;;;;;7.13;75.55;100568.56;5070563;28;20052;-60
2021/12/25 12:42:49;;;;;;;61.83;39.22;;;;;;;7.14;75.60;100562.44;5071188;28;20044;-60
2021/12/25 12:45:21;;;;;;;59.85;36.88;;;;;;;7.15;75.44;100564.13;5070710;28;20045;-60
2021/12/25 12:48:11;;;;;;;63.45;37.63;;;;;;;7.26;75.20;100554.97;5070651;28;20051;-60
2021/12/25 12:50:40;;;;;;;62.75;38.22;;;;;;;7.29;75.14;100550.44;5069238;28;20491;-60
2021/12/25 12:53:09;;;;;;;60.50;38.53;;;;;;;7.33;74.95;100552.00;5070518;28;20399;-60